createdAt,value
2019-01-05T00:00:08.349Z,7.40
2019-01-05T00:01:08.517Z,7.00
2019-01-05T00:02:08.698Z,7.60
2019-01-05T00:03:08.878Z,8.00
2019-01-05T00:04:09.044Z,7.70
2019-01-05T00:05:09.206Z,6.90
2019-01-05T00:06:09.393Z,9.30
2019-01-05T00:07:09.548Z,7.20
2019-01-05T00:08:09.721Z,7.80
2019-01-05T00:09:09.890Z,7.60
2019-01-05T00:10:10.063Z,7.30
2019-01-05T00:11:10.237Z,7.70
2019-01-05T00:12:10.423Z,8.90
2019-01-05T00:13:10.578Z,8.20
2019-01-05T00:14:10.746Z,7.30
2019-01-05T00:15:10.913Z,8.30
2019-01-05T00:16:11.087Z,7.60
2019-01-05T00:17:11.258Z,7.60
2019-01-05T00:18:11.432Z,7.70
2019-01-05T00:19:11.597Z,8.40
2019-01-05T00:20:11.770Z,9.40
2019-01-05T00:21:11.942Z,9.70
2019-01-05T00:22:12.112Z,9.00
2019-01-05T00:23:12.284Z,9.30
2019-01-05T00:24:12.464Z,9.30
2019-01-05T00:25:12.623Z,9.60
2019-01-05T00:26:12.794Z,10.90
2019-01-05T00:27:12.966Z,15.80
2019-01-05T00:28:13.146Z,12.40
2019-01-05T00:29:13.312Z,13.90
2019-01-05T00:30:13.482Z,15.00
2019-01-05T00:31:13.662Z,13.50
2019-01-05T00:32:13.824Z,14.20
2019-01-05T00:33:13.997Z,13.60
2019-01-05T00:34:14.171Z,14.70
2019-01-05T00:35:14.346Z,14.60
2019-01-05T00:36:14.526Z,16.90
2019-01-05T00:37:14.684Z,17.70
2019-01-05T00:38:14.857Z,16.40
2019-01-05T00:39:15.026Z,14.50
2019-01-05T00:40:17.131Z,17.10
2019-01-05T00:41:15.370Z,16.50
2019-01-05T00:42:15.540Z,17.70
2019-01-05T00:43:15.715Z,17.20
2019-01-05T00:44:15.885Z,17.40
2019-01-05T00:45:16.054Z,18.20
2019-01-05T00:46:16.224Z,18.70
2019-01-05T00:47:16.400Z,17.00
2019-01-05T00:48:16.564Z,19.00
2019-01-05T00:49:16.736Z,16.30
2019-01-05T00:50:16.909Z,18.50
2019-01-05T00:51:17.077Z,16.40
2019-01-05T00:52:17.254Z,17.30
2019-01-05T00:53:17.440Z,18.70
2019-01-05T00:54:17.583Z,16.80
2019-01-05T00:55:17.756Z,17.40
2019-01-05T00:56:17.929Z,15.50
2019-01-05T00:57:18.090Z,17.40
2019-01-05T00:58:18.306Z,19.10
2019-01-05T00:59:18.436Z,15.40
2019-01-05T01:00:18.605Z,16.20
2019-01-05T01:01:18.778Z,18.60
2019-01-05T01:02:18.946Z,16.60
2019-01-05T01:03:19.116Z,16.70
2019-01-05T01:04:19.296Z,17.50
2019-01-05T01:05:19.459Z,16.30
2019-01-05T01:06:19.633Z,17.00
2019-01-05T01:07:19.815Z,16.20
2019-01-05T01:08:19.974Z,15.00
2019-01-05T01:09:20.146Z,15.20
2019-01-05T01:10:20.313Z,16.20
2019-01-05T01:11:20.489Z,14.80
2019-01-05T01:12:20.652Z,14.40
2019-01-05T01:13:20.823Z,14.40
2019-01-05T01:14:20.999Z,13.80
2019-01-05T01:15:21.170Z,14.00
2019-01-05T01:16:21.344Z,12.40
2019-01-05T01:17:21.510Z,12.10
2019-01-05T01:18:21.679Z,13.10
2019-01-05T01:19:21.848Z,12.30
2019-01-05T01:20:22.015Z,10.90
2019-01-05T01:21:22.185Z,13.20
2019-01-05T01:22:22.354Z,9.70
2019-01-05T01:23:22.527Z,12.20
2019-01-05T01:24:22.704Z,10.40
2019-01-05T01:25:22.872Z,9.50
2019-01-05T01:26:23.044Z,10.30
2019-01-05T01:27:23.222Z,10.70
2019-01-05T01:28:23.387Z,13.40
2019-01-05T01:29:23.561Z,10.70
2019-01-05T01:30:23.735Z,10.00
2019-01-05T01:31:23.898Z,11.30
2019-01-05T01:32:24.069Z,11.70
2019-01-05T01:33:24.238Z,10.90
2019-01-05T01:34:24.411Z,12.90
2019-01-05T01:35:24.603Z,12.10
2019-01-05T01:36:24.742Z,13.60
2019-01-05T01:37:24.926Z,13.40
2019-01-05T01:38:25.086Z,14.30
2019-01-05T01:39:25.262Z,12.50
2019-01-05T01:40:25.433Z,11.70
2019-01-05T01:41:25.601Z,16.30
2019-01-05T01:42:25.784Z,15.70
2019-01-05T01:43:25.953Z,14.00
2019-01-05T01:44:26.133Z,14.80
2019-01-05T01:45:26.302Z,15.30
2019-01-05T01:46:26.475Z,16.30
2019-01-05T01:47:26.630Z,15.50
2019-01-05T01:48:26.808Z,16.70
2019-01-05T01:49:26.974Z,16.50
2019-01-05T01:50:27.150Z,15.10
2019-01-05T01:51:27.317Z,17.70
2019-01-05T01:52:27.495Z,17.30
2019-01-05T01:53:27.662Z,18.00
2019-01-05T01:54:27.842Z,16.90
2019-01-05T01:55:28.003Z,15.20
2019-01-05T01:56:28.168Z,16.40
2019-01-05T01:57:28.343Z,17.60
2019-01-05T01:58:28.503Z,16.50
2019-01-05T01:59:28.709Z,17.40
2019-01-05T02:00:28.862Z,16.00
2019-01-05T02:01:29.030Z,17.10
2019-01-05T02:02:29.214Z,17.10
2019-01-05T02:03:29.379Z,17.80
2019-01-05T02:04:29.552Z,17.10
2019-01-05T02:05:29.730Z,14.60
2019-01-05T02:06:29.900Z,15.70
2019-01-05T02:07:30.124Z,16.10
2019-01-05T02:08:30.239Z,15.80
2019-01-05T02:09:30.422Z,17.60
2019-01-05T02:10:30.583Z,15.80
2019-01-05T02:11:30.753Z,12.70
2019-01-05T02:12:30.926Z,13.40
2019-01-05T02:13:31.098Z,14.40
2019-01-05T02:14:31.272Z,12.60
2019-01-05T02:15:31.453Z,13.60
2019-01-05T02:16:31.619Z,12.20
2019-01-05T02:17:31.803Z,14.70
2019-01-05T02:18:32.921Z,12.70
2019-01-05T02:19:32.151Z,11.60
2019-01-05T02:20:32.335Z,12.40
2019-01-05T02:21:32.503Z,10.90
2019-01-05T02:22:32.720Z,10.30
2019-01-05T02:23:32.784Z,10.70
2019-01-05T02:24:32.957Z,10.70
2019-01-05T02:25:33.128Z,11.80
2019-01-05T02:26:33.297Z,9.20
2019-01-05T02:27:33.483Z,10.60
2019-01-05T02:28:33.648Z,10.60
2019-01-05T02:29:33.832Z,10.60
2019-01-05T02:30:33.991Z,11.30
2019-01-05T02:31:34.157Z,10.30
2019-01-05T02:32:34.335Z,9.40
2019-01-05T02:33:34.487Z,9.00
2019-01-05T02:34:34.691Z,10.60
2019-01-05T02:35:34.846Z,9.70
2019-01-05T02:36:35.010Z,10.10
2019-01-05T02:37:35.179Z,9.80
2019-01-05T02:38:35.349Z,10.30
2019-01-05T02:39:35.522Z,8.80
2019-01-05T02:40:35.691Z,9.00
2019-01-05T02:41:35.862Z,9.00
2019-01-05T02:42:36.043Z,8.50
2019-01-05T02:43:36.243Z,9.70
2019-01-05T02:44:36.375Z,8.60
2019-01-05T02:45:36.546Z,7.80
2019-01-05T02:46:36.715Z,8.60
2019-01-05T02:47:36.888Z,8.30
2019-01-05T02:48:37.063Z,8.70
2019-01-05T02:49:37.233Z,8.50
2019-01-05T02:50:37.401Z,7.60
2019-01-05T02:51:37.575Z,7.00
2019-01-05T02:52:37.752Z,7.70
2019-01-05T02:53:37.917Z,6.80
2019-01-05T02:54:38.105Z,7.00
2019-01-05T02:55:38.254Z,7.30
2019-01-05T02:56:38.427Z,8.30
2019-01-05T02:57:38.602Z,6.60
2019-01-05T02:58:38.772Z,7.60
2019-01-05T02:59:38.952Z,6.60
2019-01-05T03:00:39.116Z,6.60
2019-01-05T03:01:39.290Z,7.20
2019-01-05T03:02:39.446Z,7.40
2019-01-05T03:03:39.620Z,7.80
2019-01-05T03:04:39.791Z,6.30
2019-01-05T03:05:39.962Z,6.40
2019-01-05T03:06:40.133Z,7.00
2019-01-05T03:07:40.314Z,7.70
2019-01-05T03:08:40.477Z,6.60
2019-01-05T03:09:40.650Z,6.40
2019-01-05T03:10:40.820Z,7.40
2019-01-05T03:11:40.988Z,7.30
2019-01-05T03:12:41.161Z,6.70
2019-01-05T03:13:41.341Z,6.90
2019-01-05T03:14:41.511Z,7.30
2019-01-05T03:15:41.678Z,6.60
2019-01-05T03:16:41.846Z,7.30
2019-01-05T03:17:42.021Z,6.70
2019-01-05T03:18:42.192Z,7.30
2019-01-05T03:19:42.361Z,7.30
2019-01-05T03:20:42.529Z,7.10
2019-01-05T03:21:42.705Z,7.10
2019-01-05T03:22:42.865Z,7.70
2019-01-05T03:23:43.037Z,5.80
2019-01-05T03:24:43.210Z,6.90
2019-01-05T03:25:43.380Z,6.70
2019-01-05T03:26:43.550Z,6.50
2019-01-05T03:27:43.731Z,6.70
2019-01-05T03:28:43.894Z,6.70
2019-01-05T03:29:44.067Z,6.80
2019-01-05T03:30:44.241Z,6.10
2019-01-05T03:31:44.414Z,7.70
2019-01-05T03:32:44.598Z,6.60
2019-01-05T03:33:44.748Z,6.70
2019-01-05T03:34:44.921Z,6.50
2019-01-05T03:35:45.097Z,6.20
2019-01-05T03:36:45.273Z,6.50
2019-01-05T03:37:45.438Z,7.60
2019-01-05T03:38:45.612Z,7.10
2019-01-05T03:39:45.793Z,6.00
2019-01-05T03:40:45.952Z,7.60
2019-01-05T03:41:46.127Z,6.70
2019-01-05T03:42:46.298Z,6.70
2019-01-05T03:43:46.465Z,6.40
2019-01-05T03:44:46.639Z,6.30
2019-01-05T03:45:46.806Z,5.40
2019-01-05T03:46:46.975Z,5.60
2019-01-05T03:47:47.156Z,6.20
2019-01-05T03:48:47.320Z,5.70
2019-01-05T03:49:47.495Z,5.50
2019-01-05T03:50:47.669Z,5.30
2019-01-05T03:51:47.829Z,4.40
2019-01-05T03:52:48.004Z,5.20
2019-01-05T03:53:48.173Z,5.50
2019-01-05T03:54:48.353Z,5.30
2019-01-05T03:55:48.522Z,5.30
2019-01-05T03:56:48.684Z,6.00
2019-01-05T03:57:48.864Z,5.60
2019-01-05T03:58:49.032Z,4.60
2019-01-05T03:59:49.205Z,4.60
2019-01-05T04:00:49.370Z,5.00
2019-01-05T04:01:49.542Z,4.80
2019-01-05T04:02:49.714Z,4.30
2019-01-05T04:03:49.887Z,5.60
2019-01-05T04:04:50.075Z,5.20
2019-01-05T04:05:50.235Z,5.20
2019-01-05T04:06:50.409Z,5.80
2019-01-05T04:07:50.576Z,5.40
2019-01-05T04:08:50.761Z,5.00
2019-01-05T04:09:50.919Z,4.40
2019-01-05T04:10:51.079Z,4.10
2019-01-05T04:11:51.252Z,3.80
2019-01-05T04:12:51.420Z,3.90
2019-01-05T04:13:51.608Z,3.90
2019-01-05T04:14:51.773Z,3.20
2019-01-05T04:15:51.929Z,3.60
2019-01-05T04:16:52.101Z,3.60
2019-01-05T04:17:52.272Z,4.30
2019-01-05T04:18:52.444Z,4.70
2019-01-05T04:19:52.617Z,4.30
2019-01-05T04:20:52.786Z,3.60
2019-01-05T04:21:52.959Z,3.50
2019-01-05T04:22:53.128Z,4.00
2019-01-05T04:23:53.297Z,4.30
2019-01-05T04:24:53.477Z,4.10
2019-01-05T04:25:53.650Z,4.60
2019-01-05T04:26:53.811Z,3.70
2019-01-05T04:27:53.983Z,3.70
2019-01-05T04:28:54.157Z,4.30
2019-01-05T04:29:54.330Z,3.90
2019-01-05T04:30:54.496Z,3.90
2019-01-05T04:31:54.669Z,3.50
2019-01-05T04:32:54.843Z,4.70
2019-01-05T04:33:55.023Z,3.60
2019-01-05T04:34:55.196Z,3.40
2019-01-05T04:35:55.362Z,3.70
2019-01-05T04:36:55.533Z,3.90
2019-01-05T04:37:55.700Z,3.50
2019-01-05T04:38:55.863Z,3.30
2019-01-05T04:39:56.043Z,3.10
2019-01-05T04:40:56.218Z,3.40
2019-01-05T04:41:56.385Z,3.80
2019-01-05T04:42:56.620Z,3.00
2019-01-05T04:43:56.732Z,4.00
2019-01-05T04:44:56.903Z,3.80
2019-01-05T04:45:57.084Z,4.30
2019-01-05T04:46:57.233Z,3.40
2019-01-05T04:47:57.404Z,2.90
2019-01-05T04:48:57.576Z,3.50
2019-01-05T04:49:57.748Z,3.90
2019-01-05T04:50:57.920Z,3.70
2019-01-05T04:51:58.093Z,3.70
2019-01-05T04:52:58.267Z,3.70
2019-01-05T04:53:58.436Z,3.60
2019-01-05T04:54:58.603Z,3.50
2019-01-05T04:55:58.779Z,3.90
2019-01-05T04:56:58.952Z,3.50
2019-01-05T04:57:59.123Z,4.10
2019-01-05T04:58:59.294Z,4.20
2019-01-05T04:59:59.467Z,3.70
2019-01-05T05:00:59.638Z,4.90
2019-01-05T05:01:59.813Z,3.80
2019-01-05T05:02:59.982Z,3.90
2019-01-05T05:04:00.150Z,4.20
2019-01-05T05:05:00.325Z,3.90
2019-01-05T05:06:00.494Z,3.40
2019-01-05T05:07:00.674Z,4.80
2019-01-05T05:08:00.838Z,5.00
2019-01-05T05:09:01.019Z,4.70
2019-01-05T05:10:01.180Z,4.00
2019-01-05T05:11:01.355Z,4.60
2019-01-05T05:12:01.528Z,5.50
2019-01-05T05:13:01.700Z,4.50
2019-01-05T05:14:01.870Z,4.30
2019-01-05T05:15:02.043Z,5.50
2019-01-05T05:16:02.226Z,4.80
2019-01-05T05:17:02.391Z,6.20
2019-01-05T05:18:02.562Z,6.20
2019-01-05T05:19:02.734Z,5.50
2019-01-05T05:20:02.905Z,5.20
2019-01-05T05:21:03.099Z,4.80
2019-01-05T05:22:03.246Z,4.80
2019-01-05T05:23:03.415Z,5.30
2019-01-05T05:24:03.585Z,4.40
2019-01-05T05:25:03.755Z,4.30
2019-01-05T05:26:03.930Z,4.20
2019-01-05T05:27:04.099Z,4.70
2019-01-05T05:28:04.271Z,4.60
2019-01-05T05:29:04.445Z,4.60
2019-01-05T05:30:04.617Z,4.10
2019-01-05T05:31:04.785Z,4.00
2019-01-05T05:32:04.962Z,4.40
2019-01-05T05:33:05.126Z,4.50
2019-01-05T05:34:05.308Z,4.70
2019-01-05T05:35:05.476Z,4.60
2019-01-05T05:36:05.649Z,4.20
2019-01-05T05:37:05.817Z,4.90
2019-01-05T05:38:05.996Z,4.40
2019-01-05T05:39:06.161Z,4.90
2019-01-05T05:40:06.334Z,4.90
2019-01-05T05:41:06.506Z,3.60
2019-01-05T05:42:06.675Z,5.00
2019-01-05T05:43:06.841Z,4.20
2019-01-05T05:44:07.003Z,3.80
2019-01-05T05:45:07.181Z,4.60
2019-01-05T05:46:07.347Z,4.30
2019-01-05T05:47:07.519Z,4.00
2019-01-05T05:48:07.686Z,5.20
2019-01-05T05:49:07.863Z,4.60
2019-01-05T05:50:08.037Z,5.40
2019-01-05T05:52:08.375Z,4.10
2019-01-05T05:53:08.553Z,3.60
2019-01-05T05:54:08.714Z,4.70
2019-01-05T05:55:08.889Z,4.00
2019-01-05T05:56:09.058Z,4.40
2019-01-05T05:57:09.230Z,3.90
2019-01-05T05:58:09.400Z,3.70
2019-01-05T05:59:09.574Z,3.70
2019-01-05T06:00:09.743Z,3.90
2019-01-05T06:01:09.914Z,4.30
2019-01-05T06:02:10.093Z,3.30
2019-01-05T06:03:10.259Z,4.30
2019-01-05T06:04:10.433Z,3.60
2019-01-05T06:05:10.609Z,3.10
2019-01-05T06:06:10.779Z,4.10
2019-01-05T06:07:10.964Z,5.10
2019-01-05T06:08:11.126Z,4.30
2019-01-05T06:09:11.297Z,4.80
2019-01-05T06:10:11.467Z,5.50
2019-01-05T06:11:11.646Z,4.20
2019-01-05T06:12:11.810Z,4.70
2019-01-05T06:13:11.982Z,3.90
2019-01-05T06:14:12.162Z,3.30
2019-01-05T06:15:12.325Z,3.40
2019-01-05T06:16:12.497Z,3.50
2019-01-05T06:17:12.671Z,3.80
2019-01-05T06:18:12.844Z,4.10
2019-01-05T06:19:13.014Z,2.70
2019-01-05T06:20:13.183Z,3.10
2019-01-05T06:21:13.357Z,3.30
2019-01-05T06:22:13.528Z,3.10
2019-01-05T06:23:14.507Z,3.80
2019-01-05T06:24:13.863Z,3.60
2019-01-05T06:25:14.025Z,3.10
2019-01-05T06:26:14.197Z,3.50
2019-01-05T06:27:14.363Z,4.60
2019-01-05T06:28:14.534Z,4.60
2019-01-05T06:29:14.705Z,3.50
2019-01-05T06:30:14.877Z,3.20
2019-01-05T06:31:15.052Z,3.60
2019-01-05T06:32:15.230Z,3.30
2019-01-05T06:33:15.402Z,3.30
2019-01-05T06:34:15.598Z,4.00
2019-01-05T06:35:15.745Z,2.70
2019-01-05T06:36:15.923Z,3.30
2019-01-05T06:37:16.091Z,3.20
2019-01-05T06:38:16.264Z,3.00
2019-01-05T06:39:16.439Z,3.80
2019-01-05T06:40:16.606Z,4.40
2019-01-05T06:41:16.778Z,3.40
2019-01-05T06:42:16.948Z,2.90
2019-01-05T06:43:17.115Z,3.50
2019-01-05T06:44:17.294Z,3.90
2019-01-05T06:45:17.460Z,3.40
2019-01-05T06:46:17.631Z,3.20
2019-01-05T06:47:17.808Z,4.60
2019-01-05T06:48:17.974Z,4.00
2019-01-05T06:49:18.153Z,3.60
2019-01-05T06:50:18.321Z,3.70
2019-01-05T06:51:18.492Z,3.20
2019-01-05T06:52:18.669Z,2.10
2019-01-05T06:53:18.836Z,3.20
2019-01-05T06:54:19.003Z,2.60
2019-01-05T06:55:19.171Z,3.00
2019-01-05T06:56:19.353Z,2.20
2019-01-05T06:57:19.517Z,2.40
2019-01-05T06:58:19.684Z,3.30
2019-01-05T06:59:19.857Z,2.80
2019-01-05T07:00:20.032Z,2.50
2019-01-05T07:01:20.203Z,3.00
2019-01-05T07:02:20.374Z,2.60
2019-01-05T07:03:20.546Z,2.90
2019-01-05T07:04:20.721Z,3.70
2019-01-05T07:05:20.895Z,3.00
2019-01-05T07:06:21.070Z,6.00
2019-01-05T07:07:21.242Z,3.30
2019-01-05T07:08:21.408Z,2.50
2019-01-05T07:09:21.577Z,3.00
2019-01-05T07:10:21.760Z,3.90
2019-01-05T07:11:21.927Z,2.50
2019-01-05T07:12:22.094Z,4.40
2019-01-05T07:13:22.266Z,3.30
2019-01-05T07:14:22.435Z,4.60
2019-01-05T07:15:22.607Z,3.40
2019-01-05T07:16:22.783Z,2.90
2019-01-05T07:17:23.361Z,3.00
2019-01-05T07:18:23.125Z,2.40
2019-01-05T07:19:23.297Z,4.60
2019-01-05T07:20:23.472Z,2.40
2019-01-05T07:21:23.642Z,2.60
2019-01-05T07:22:23.818Z,3.30
2019-01-05T07:24:24.199Z,2.00
2019-01-05T07:25:24.325Z,2.20
2019-01-05T07:26:24.501Z,4.00
2019-01-05T07:27:24.672Z,4.40
2019-01-05T07:28:24.842Z,2.70
2019-01-05T07:29:25.008Z,2.60
2019-01-05T07:30:25.184Z,2.50
2019-01-05T07:31:25.355Z,3.70
2019-01-05T07:32:25.528Z,1.80
2019-01-05T07:33:25.696Z,2.20
2019-01-05T07:34:26.234Z,2.30
2019-01-05T07:35:26.046Z,2.70
2019-01-05T07:36:26.234Z,3.10
2019-01-05T07:37:26.409Z,2.70
2019-01-05T07:38:26.594Z,4.10
2019-01-05T07:39:26.746Z,3.80
2019-01-05T07:40:26.920Z,4.30
2019-01-05T07:41:27.091Z,3.50
2019-01-05T07:42:27.265Z,3.00
2019-01-05T07:43:27.451Z,3.10
2019-01-05T07:44:27.604Z,3.00
2019-01-05T07:45:27.767Z,2.40
2019-01-05T07:46:27.942Z,2.40
2019-01-05T07:47:28.112Z,2.60
2019-01-05T07:48:28.291Z,2.60
2019-01-05T07:49:28.464Z,2.50
2019-01-05T07:50:28.627Z,2.90
2019-01-05T07:51:28.798Z,3.60
2019-01-05T07:52:28.971Z,2.50
2019-01-05T07:53:29.160Z,3.00
2019-01-05T07:54:29.319Z,3.20
2019-01-05T07:55:29.479Z,2.30
2019-01-05T07:56:29.655Z,2.20
2019-01-05T07:57:29.835Z,2.60
2019-01-05T07:58:30.007Z,2.10
2019-01-05T07:59:30.176Z,2.20
2019-01-05T08:00:30.350Z,2.50
2019-01-05T08:01:30.529Z,2.30
2019-01-05T08:02:30.692Z,2.80
2019-01-05T08:03:30.866Z,2.40
2019-01-05T08:04:31.040Z,2.40
2019-01-05T08:05:31.212Z,2.10
2019-01-05T08:06:31.396Z,2.30
2019-01-05T08:07:31.564Z,2.40
2019-01-05T08:08:31.744Z,3.10
2019-01-05T08:09:31.911Z,4.00
2019-01-05T08:10:32.089Z,2.30
2019-01-05T08:11:32.250Z,2.70
2019-01-05T08:12:32.430Z,3.30
2019-01-05T08:13:32.604Z,2.20
2019-01-05T08:14:32.786Z,1.70
2019-01-05T08:15:32.934Z,2.10
2019-01-05T08:16:33.111Z,2.90
2019-01-05T08:17:33.281Z,1.90
2019-01-05T08:18:33.462Z,2.50
2019-01-05T08:19:33.641Z,3.50
2019-01-05T08:20:33.795Z,1.90
2019-01-05T08:21:33.971Z,1.80
2019-01-05T08:22:34.149Z,1.80
2019-01-05T08:23:34.312Z,4.60
2019-01-05T08:24:34.497Z,2.90
2019-01-05T08:25:34.669Z,1.80
2019-01-05T08:26:34.844Z,2.20
2019-01-05T08:27:35.024Z,1.90
2019-01-05T08:28:35.201Z,1.70
2019-01-05T08:29:35.365Z,2.90
2019-01-05T08:30:35.568Z,1.90
2019-01-05T08:31:35.709Z,3.70
2019-01-05T08:32:35.874Z,2.40
2019-01-05T08:33:36.052Z,3.20
2019-01-05T08:34:36.223Z,2.10
2019-01-05T08:35:36.394Z,2.10
2019-01-05T08:36:36.565Z,1.70
2019-01-05T08:37:36.734Z,2.80
2019-01-05T08:38:36.908Z,2.80
2019-01-05T08:39:37.083Z,1.70
2019-01-05T08:40:37.260Z,1.80
2019-01-05T08:41:37.426Z,1.40
2019-01-05T08:42:37.602Z,1.80
2019-01-05T08:43:37.767Z,2.00
2019-01-05T08:44:37.937Z,1.90
2019-01-05T08:45:38.123Z,2.60
2019-01-05T08:46:38.291Z,2.60
2019-01-05T08:47:38.467Z,3.60
2019-01-05T08:48:38.638Z,3.40
2019-01-05T08:49:38.808Z,2.70
2019-01-05T08:50:38.983Z,2.30
2019-01-05T08:51:39.274Z,3.20
2019-01-05T08:52:39.311Z,2.70
2019-01-05T08:53:39.484Z,1.60
2019-01-05T08:54:39.656Z,1.90
2019-01-05T08:55:39.833Z,3.70
2019-01-05T08:56:40.001Z,1.80
2019-01-05T08:57:40.172Z,1.70
2019-01-05T08:58:40.358Z,1.90
2019-01-05T08:59:40.520Z,1.50
2019-01-05T09:00:40.695Z,1.90
2019-01-05T09:01:40.858Z,2.00
2019-01-05T09:02:41.088Z,2.10
2019-01-05T09:03:41.202Z,2.40
2019-01-05T09:04:41.375Z,5.00
2019-01-05T09:05:41.557Z,9.40
2019-01-05T09:06:41.720Z,8.30
2019-01-05T09:07:41.902Z,6.10
2019-01-05T09:08:42.066Z,7.10
2019-01-05T09:09:42.240Z,6.10
2019-01-05T09:10:42.407Z,6.90
2019-01-05T09:11:42.584Z,6.70
2019-01-05T09:12:42.756Z,6.00
2019-01-05T09:13:42.929Z,5.20
2019-01-05T09:14:43.096Z,4.40
2019-01-05T09:15:43.267Z,4.10
2019-01-05T09:16:43.440Z,8.60
2019-01-05T09:17:43.613Z,7.90
2019-01-05T09:18:43.788Z,5.90
2019-01-05T09:19:43.961Z,5.20
2019-01-05T09:20:44.133Z,4.30
2019-01-05T09:21:44.327Z,5.40
2019-01-05T09:22:44.475Z,4.80
2019-01-05T09:23:44.646Z,5.80
2019-01-05T09:24:44.817Z,7.40
2019-01-05T09:25:44.996Z,7.40
2019-01-05T09:26:45.187Z,4.10
2019-01-05T09:27:45.329Z,3.40
2019-01-05T09:28:45.504Z,7.40
2019-01-05T09:29:45.694Z,8.20
2019-01-05T09:30:45.858Z,5.80
2019-01-05T09:31:46.021Z,6.90
2019-01-05T09:32:46.201Z,4.40
2019-01-05T09:33:46.385Z,5.20
2019-01-05T09:34:46.552Z,5.10
2019-01-05T09:35:46.727Z,4.90
2019-01-05T09:36:46.891Z,5.40
2019-01-05T09:37:47.064Z,2.40
2019-01-05T09:38:47.235Z,2.90
2019-01-05T09:39:47.428Z,2.70
2019-01-05T09:40:47.594Z,1.90
2019-01-05T09:41:47.757Z,1.90
2019-01-05T09:42:47.942Z,2.90
2019-01-05T09:43:48.101Z,3.70
2019-01-05T09:44:48.275Z,4.20
2019-01-05T09:45:48.447Z,6.10
2019-01-05T09:46:48.622Z,5.20
2019-01-05T09:47:48.811Z,5.50
2019-01-05T09:48:48.986Z,5.60
2019-01-05T09:49:49.150Z,5.60
2019-01-05T09:50:49.320Z,5.80
2019-01-05T09:51:49.491Z,7.20
2019-01-05T09:52:49.661Z,6.80
2019-01-05T09:53:49.842Z,4.80
2019-01-05T09:54:50.016Z,4.00
2019-01-05T09:55:50.198Z,4.00
2019-01-05T09:56:50.362Z,4.90
2019-01-05T09:57:50.541Z,4.40
2019-01-05T09:58:50.726Z,4.10
2019-01-05T09:59:50.878Z,4.20
2019-01-05T10:00:51.048Z,2.70
2019-01-05T10:01:51.214Z,2.00
2019-01-05T10:02:51.388Z,2.50
2019-01-05T10:03:51.603Z,5.30
2019-01-05T10:04:51.730Z,3.40
2019-01-05T10:05:51.898Z,2.80
2019-01-05T10:06:52.083Z,2.00
2019-01-05T10:07:52.260Z,1.70
2019-01-05T10:08:52.433Z,2.10
2019-01-05T10:09:52.589Z,7.50
2019-01-05T10:10:52.763Z,2.90
2019-01-05T10:11:52.936Z,4.90
2019-01-05T10:12:53.123Z,3.70
2019-01-05T10:13:53.286Z,1.70
2019-01-05T10:14:53.448Z,1.60
2019-01-05T10:15:53.624Z,1.10
2019-01-05T10:16:53.783Z,1.80
2019-01-05T10:17:53.956Z,1.80
2019-01-05T10:18:54.137Z,1.20
2019-01-05T10:19:54.317Z,0.90
2019-01-05T10:20:54.497Z,0.80
2019-01-05T10:21:54.664Z,2.10
2019-01-05T10:22:54.840Z,6.40
2019-01-05T10:23:55.012Z,1.40
2019-01-05T10:24:55.186Z,2.30
2019-01-05T10:25:55.358Z,1.60
2019-01-05T10:26:55.530Z,3.40
2019-01-05T10:27:55.704Z,1.60
2019-01-05T10:28:55.878Z,2.20
2019-01-05T10:29:56.044Z,1.70
2019-01-05T10:30:56.222Z,1.60
2019-01-05T10:31:56.390Z,1.30
2019-01-05T10:32:56.572Z,1.80
2019-01-05T10:33:56.737Z,1.50
2019-01-05T10:34:56.910Z,1.30
2019-01-05T10:35:57.079Z,1.30
2019-01-05T10:36:57.246Z,1.30
2019-01-05T10:37:57.429Z,1.00
2019-01-05T10:38:57.585Z,1.60
2019-01-05T10:39:57.770Z,1.80
2019-01-05T10:40:57.947Z,2.00
2019-01-05T10:41:58.106Z,1.20
2019-01-05T10:42:58.279Z,5.40
2019-01-05T10:43:58.452Z,3.00
2019-01-05T10:44:58.627Z,1.90
2019-01-05T10:45:58.800Z,1.90
2019-01-05T10:46:58.978Z,1.40
2019-01-05T10:47:59.151Z,1.80
2019-01-05T10:48:59.330Z,1.50
2019-01-05T10:49:59.503Z,3.70
2019-01-05T10:50:59.663Z,0.70
2019-01-05T10:51:59.837Z,0.90
2019-01-05T10:53:00.011Z,0.80
2019-01-05T10:54:00.186Z,0.80
2019-01-05T10:55:00.359Z,0.60
2019-01-05T10:56:00.534Z,0.80
2019-01-05T10:57:00.708Z,1.00
2019-01-05T10:58:00.892Z,1.00
2019-01-05T10:59:01.049Z,2.80
2019-01-05T11:00:01.220Z,2.30
2019-01-05T11:01:01.392Z,3.10
2019-01-05T11:02:01.569Z,2.40
2019-01-05T11:03:01.743Z,1.70
2019-01-05T11:04:01.920Z,1.00
2019-01-05T11:05:02.095Z,1.30
2019-01-05T11:06:02.267Z,1.90
2019-01-05T11:07:02.449Z,1.10
2019-01-05T11:08:02.622Z,0.90
2019-01-05T11:09:02.857Z,1.00
2019-01-05T11:10:02.966Z,1.10
2019-01-05T11:11:03.143Z,0.80
2019-01-05T11:12:03.317Z,1.20
2019-01-05T11:13:03.481Z,0.80
2019-01-05T11:14:03.664Z,2.20
2019-01-05T11:15:03.832Z,1.00
2019-01-05T11:16:03.999Z,1.80
2019-01-05T11:17:04.185Z,1.60
2019-01-05T11:18:04.362Z,0.90
2019-01-05T11:19:04.531Z,1.30
2019-01-05T11:20:04.702Z,0.80
2019-01-05T11:21:04.872Z,0.80
2019-01-05T11:22:05.043Z,0.90
2019-01-05T11:23:05.221Z,0.70
2019-01-05T11:24:05.388Z,0.60
2019-01-05T11:25:05.558Z,0.70
2019-01-05T11:26:05.742Z,0.60
2019-01-05T11:27:05.916Z,1.60
2019-01-05T11:28:06.087Z,1.20
2019-01-05T11:29:06.255Z,1.30
2019-01-05T11:30:06.428Z,1.30
2019-01-05T11:31:06.603Z,0.90
2019-01-05T11:32:06.776Z,0.70
2019-01-05T11:33:06.956Z,1.80
2019-01-05T11:34:07.123Z,0.60
2019-01-05T11:35:07.296Z,1.10
2019-01-05T11:36:07.474Z,1.50
2019-01-05T11:37:07.665Z,1.80
2019-01-05T11:38:07.813Z,1.20
2019-01-05T11:39:07.990Z,0.50
2019-01-05T11:40:08.177Z,1.70
2019-01-05T11:41:08.343Z,1.00
2019-01-05T11:42:08.512Z,1.70
2019-01-05T11:43:08.703Z,1.10
2019-01-05T11:44:08.861Z,1.00
2019-01-05T11:45:09.031Z,0.60
2019-01-05T11:46:09.196Z,1.30
2019-01-05T11:47:09.366Z,0.80
2019-01-05T11:48:09.550Z,1.50
2019-01-05T11:49:09.713Z,1.90
2019-01-05T11:50:09.893Z,1.50
2019-01-05T11:51:10.058Z,2.10
2019-01-05T11:52:10.251Z,1.60
2019-01-05T11:53:10.405Z,1.10
2019-01-05T11:54:10.602Z,1.00
2019-01-05T11:55:10.777Z,1.50
2019-01-05T11:56:10.964Z,1.40
2019-01-05T11:57:11.115Z,0.90
2019-01-05T11:58:11.296Z,1.30
2019-01-05T11:59:11.485Z,1.10
2019-01-05T12:00:11.626Z,0.80
2019-01-05T12:01:11.797Z,0.70
2019-01-05T12:02:11.984Z,1.40
2019-01-05T12:03:12.145Z,3.10
2019-01-05T12:04:12.337Z,2.00
2019-01-05T12:05:12.506Z,2.80
2019-01-05T12:06:12.652Z,1.90
2019-01-05T12:07:12.818Z,0.90
2019-01-05T12:08:13.572Z,0.70
2019-01-05T12:09:13.153Z,4.60
2019-01-05T12:10:13.324Z,1.40
2019-01-05T12:11:13.493Z,1.20
2019-01-05T12:12:13.670Z,1.00
2019-01-05T12:13:13.859Z,1.10
2019-01-05T12:14:14.027Z,3.10
2019-01-05T12:15:14.206Z,1.20
2019-01-05T12:16:14.370Z,1.30
2019-01-05T12:17:14.544Z,0.80
2019-01-05T12:18:14.723Z,0.70
2019-01-05T12:19:14.888Z,2.00
2019-01-05T12:20:15.059Z,1.80
2019-01-05T12:21:15.236Z,1.60
2019-01-05T12:22:15.436Z,2.50
2019-01-05T12:23:15.586Z,2.20
2019-01-05T12:24:15.756Z,2.40
2019-01-05T12:25:15.937Z,2.10
2019-01-05T12:26:16.102Z,2.10
2019-01-05T12:27:16.282Z,1.40
2019-01-05T12:28:16.451Z,1.40
2019-01-05T12:29:16.629Z,2.10
2019-01-05T12:30:16.799Z,1.90
2019-01-05T12:31:17.007Z,0.90
2019-01-05T12:32:17.169Z,1.60
2019-01-05T12:33:17.323Z,1.90
2019-01-05T12:34:17.497Z,2.00
2019-01-05T12:35:17.674Z,2.00
2019-01-05T12:36:17.854Z,0.90
2019-01-05T12:37:18.016Z,1.20
2019-01-05T12:38:18.203Z,3.10
2019-01-05T12:39:18.371Z,1.70
2019-01-05T12:40:18.549Z,2.40
2019-01-05T12:41:18.724Z,2.40
2019-01-05T12:42:18.903Z,2.50
2019-01-05T12:43:19.075Z,0.80
2019-01-05T12:44:19.254Z,1.40
2019-01-05T12:45:19.427Z,1.00
2019-01-05T12:46:19.596Z,1.00
2019-01-05T12:47:19.771Z,1.00
2019-01-05T12:48:19.938Z,1.00
2019-01-05T12:49:20.119Z,1.60
2019-01-05T12:50:20.285Z,1.30
2019-01-05T12:51:20.469Z,1.40
2019-01-05T12:52:20.634Z,1.60
2019-01-05T12:53:20.808Z,1.70
2019-01-05T12:54:20.983Z,1.60
2019-01-05T12:55:21.155Z,1.20
2019-01-05T12:56:21.346Z,1.50
2019-01-05T12:57:21.511Z,2.20
2019-01-05T12:58:21.685Z,2.60
2019-01-05T12:59:21.856Z,2.60
2019-01-05T13:00:22.037Z,8.80
2019-01-05T13:01:22.202Z,3.60
2019-01-05T13:02:22.375Z,2.40
2019-01-05T13:03:22.543Z,2.90
2019-01-05T13:04:22.712Z,3.10
2019-01-05T13:05:22.887Z,3.20
2019-01-05T13:06:23.064Z,3.60
2019-01-05T13:07:23.230Z,2.80
2019-01-05T13:08:23.403Z,1.40
2019-01-05T13:09:23.579Z,0.90
2019-01-05T13:10:23.751Z,1.20
2019-01-05T13:11:23.945Z,1.30
2019-01-05T13:12:24.100Z,1.10
2019-01-05T13:13:24.274Z,1.20
2019-01-05T13:14:24.456Z,2.90
2019-01-05T13:15:24.641Z,2.60
2019-01-05T13:16:24.800Z,3.20
2019-01-05T13:17:24.977Z,1.60
2019-01-05T13:18:25.157Z,0.80